sensor_id;sensor_type;location;lat;lon;timestamp;temperature;humidity
27224;DHT22;14965;50.660;13.226;2023-06-22T00:00:07;16.80;99.90
27224;DHT22;14965;50.660;13.226;2023-06-22T00:02:33;16.80;99.90
27224;DHT22;14965;50.660;13.226;2023-06-22T00:04:59;16.80;99.90
27224;DHT22;14965;50.660;13.226;2023-06-22T00:07:25;16.70;99.90
27224;DHT22;14965;50.660;13.226;2023-06-22T00:09:51;16.70;99.90
27224;DHT22;14965;50.660;13.226;2023-06-22T00:12:17;16.70;99.90
27224;DHT22;14965;50.660;13.226;2023-06-22T00:14:42;16.70;99.90
27224;DHT22;14965;50.660;13.226;2023-06-22T00:17:10;16.70;99.90
27224;DHT22;14965;50.660;13.226;2023-06-22T00:19:35;16.60;99.90
27224;DHT22;14965;50.660;13.226;2023-06-22T00:22:01;16.60;99.90
27224;DHT22;14965;50.660;13.226;2023-06-22T00:24:27;16.60;99.90
27224;DHT22;14965;50.660;13.226;2023-06-22T00:26:53;16.60;99.90
27224;DHT22;14965;50.660;13.226;2023-06-22T00:29:19;16.60;99.90
27224;DHT22;14965;50.660;13.226;2023-06-22T00:31:45;16.60;99.90
27224;DHT22;14965;50.660;13.226;2023-06-22T00:34:12;16.60;99.90
27224;DHT22;14965;50.660;13.226;2023-06-22T00:36:38;16.70;99.90
27224;DHT22;14965;50.660;13.226;2023-06-22T00:39:04;16.70;99.90
27224;DHT22;14965;50.660;13.226;2023-06-22T00:41:30;16.60;99.90
27224;DHT22;14965;50.660;13.226;2023-06-22T00:43:55;16.60;99.90
27224;DHT22;14965;50.660;13.226;2023-06-22T00:46:21;16.50;99.90
27224;DHT22;14965;50.660;13.226;2023-06-22T00:48:48;16.50;99.90
27224;DHT22;14965;50.660;13.226;2023-06-22T00:51:17;16.40;99.90
27224;DHT22;14965;50.660;13.226;2023-06-22T00:53:43;16.40;99.90
27224;DHT22;14965;50.660;13.226;2023-06-22T00:56:10;16.40;99.90
27224;DHT22;14965;50.660;13.226;2023-06-22T00:58:36;16.40;99.90
27224;DHT22;14965;50.660;13.226;2023-06-22T01:01:02;16.40;99.90
27224;DHT22;14965;50.660;13.226;2023-06-22T01:03:28;16.40;99.90
27224;DHT22;14965;50.660;13.226;2023-06-22T01:06:02;16.40;99.90
27224;DHT22;14965;50.660;13.226;2023-06-22T01:08:40;16.30;99.90
27224;DHT22;14965;50.660;13.226;2023-06-22T01:11:16;16.30;99.90
27224;DHT22;14965;50.660;13.226;2023-06-22T01:13:52;16.30;99.90
27224;DHT22;14965;50.660;13.226;2023-06-22T01:16:25;16.30;99.90
27224;DHT22;14965;50.660;13.226;2023-06-22T01:18:57;16.30;99.90
27224;DHT22;14965;50.660;13.226;2023-06-22T01:21:30;16.20;99.90
27224;DHT22;14965;50.660;13.226;2023-06-22T01:24:07;16.20;99.90
27224;DHT22;14965;50.660;13.226;2023-06-22T01:26:46;16.10;99.90
27224;DHT22;14965;50.660;13.226;2023-06-22T01:29:20;16.10;99.90
27224;DHT22;14965;50.660;13.226;2023-06-22T01:31:48;16.10;99.90
27224;DHT22;14965;50.660;13.226;2023-06-22T01:34:16;16.10;99.90
27224;DHT22;14965;50.660;13.226;2023-06-22T01:36:43;16.10;99.90
27224;DHT22;14965;50.660;13.226;2023-06-22T01:39:11;16.00;99.90
27224;DHT22;14965;50.660;13.226;2023-06-22T01:41:38;16.00;99.90
27224;DHT22;14965;50.660;13.226;2023-06-22T01:44:07;16.00;99.90
27224;DHT22;14965;50.660;13.226;2023-06-22T01:46:36;16.10;99.90
27224;DHT22;14965;50.660;13.226;2023-06-22T01:49:04;16.10;99.90
27224;DHT22;14965;50.660;13.226;2023-06-22T01:51:31;16.10;99.90
27224;DHT22;14965;50.660;13.226;2023-06-22T01:53:58;16.10;99.90
27224;DHT22;14965;50.660;13.226;2023-06-22T01:56:23;16.00;99.90
27224;DHT22;14965;50.660;13.226;2023-06-22T01:59:00;16.00;99.90
27224;DHT22;14965;50.660;13.226;2023-06-22T02:01:37;15.90;99.90
27224;DHT22;14965;50.660;13.226;2023-06-22T02:04:12;15.90;99.90
27224;DHT22;14965;50.660;13.226;2023-06-22T02:06:46;15.90;99.90
27224;DHT22;14965;50.660;13.226;2023-06-22T02:09:17;15.90;99.90
27224;DHT22;14965;50.660;13.226;2023-06-22T02:11:47;15.90;99.90
27224;DHT22;14965;50.660;13.226;2023-06-22T02:14:18;15.90;99.90
27224;DHT22;14965;50.660;13.226;2023-06-22T02:16:46;15.80;99.90
27224;DHT22;14965;50.660;13.226;2023-06-22T02:19:12;15.80;99.90
27224;DHT22;14965;50.660;13.226;2023-06-22T02:21:38;15.80;99.90
27224;DHT22;14965;50.660;13.226;2023-06-22T02:24:04;15.70;99.90
27224;DHT22;14965;50.660;13.226;2023-06-22T02:26:30;15.70;99.90
27224;DHT22;14965;50.660;13.226;2023-06-22T02:28:57;15.70;99.90
27224;DHT22;14965;50.660;13.226;2023-06-22T02:31:23;15.70;99.90
27224;DHT22;14965;50.660;13.226;2023-06-22T02:33:50;15.70;99.90
27224;DHT22;14965;50.660;13.226;2023-06-22T02:36:16;15.70;99.90
27224;DHT22;14965;50.660;13.226;2023-06-22T02:38:43;15.70;99.90
27224;DHT22;14965;50.660;13.226;2023-06-22T02:41:09;15.70;99.90
27224;DHT22;14965;50.660;13.226;2023-06-22T02:43:35;15.60;99.90
27224;DHT22;14965;50.660;13.226;2023-06-22T02:46:01;15.70;99.90
27224;DHT22;14965;50.660;13.226;2023-06-22T02:48:26;15.70;99.90
27224;DHT22;14965;50.660;13.226;2023-06-22T02:50:54;15.70;99.90
27224;DHT22;14965;50.660;13.226;2023-06-22T02:53:19;15.70;99.90
27224;DHT22;14965;50.660;13.226;2023-06-22T02:55:45;15.70;99.90
27224;DHT22;14965;50.660;13.226;2023-06-22T02:58:11;15.70;99.90
27224;DHT22;14965;50.660;13.226;2023-06-22T03:00:37;15.60;99.90
27224;DHT22;14965;50.660;13.226;2023-06-22T03:03:03;15.60;99.90
27224;DHT22;14965;50.660;13.226;2023-06-22T03:05:28;15.70;99.90
27224;DHT22;14965;50.660;13.226;2023-06-22T03:07:56;15.70;99.90
27224;DHT22;14965;50.660;13.226;2023-06-22T03:10:21;15.70;99.90
27224;DHT22;14965;50.660;13.226;2023-06-22T03:12:47;15.70;99.90
27224;DHT22;14965;50.660;13.226;2023-06-22T03:15:13;15.70;99.90
27224;DHT22;14965;50.660;13.226;2023-06-22T03:17:40;15.80;99.90
27224;DHT22;14965;50.660;13.226;2023-06-22T03:20:07;15.90;99.90
27224;DHT22;14965;50.660;13.226;2023-06-22T03:22:33;15.90;99.90
27224;DHT22;14965;50.660;13.226;2023-06-22T03:25:00;16.00;99.90
27224;DHT22;14965;50.660;13.226;2023-06-22T03:27:27;16.10;99.90
27224;DHT22;14965;50.660;13.226;2023-06-22T03:29:53;16.10;99.90
27224;DHT22;14965;50.660;13.226;2023-06-22T03:32:18;16.20;99.90
27224;DHT22;14965;50.660;13.226;2023-06-22T03:34:44;16.20;99.90
27224;DHT22;14965;50.660;13.226;2023-06-22T03:37:10;16.30;99.90
27224;DHT22;14965;50.660;13.226;2023-06-22T03:39:36;16.40;99.90
27224;DHT22;14965;50.660;13.226;2023-06-22T03:42:04;16.40;99.90
27224;DHT22;14965;50.660;13.226;2023-06-22T03:44:30;16.50;99.90
27224;DHT22;14965;50.660;13.226;2023-06-22T03:46:56;16.60;99.90
27224;DHT22;14965;50.660;13.226;2023-06-22T03:49:22;16.70;99.90
27224;DHT22;14965;50.660;13.226;2023-06-22T03:51:48;16.70;99.90
27224;DHT22;14965;50.660;13.226;2023-06-22T03:54:14;16.70;99.90
27224;DHT22;14965;50.660;13.226;2023-06-22T03:56:39;16.70;99.90
27224;DHT22;14965;50.660;13.226;2023-06-22T03:59:07;16.80;99.90
27224;DHT22;14965;50.660;13.226;2023-06-22T04:01:32;16.90;99.90
27224;DHT22;14965;50.660;13.226;2023-06-22T04:03:58;16.90;99.90
27224;DHT22;14965;50.660;13.226;2023-06-22T04:06:24;16.90;99.90
27224;DHT22;14965;50.660;13.226;2023-06-22T04:08:50;17.00;99.90
27224;DHT22;14965;50.660;13.226;2023-06-22T04:11:16;17.00;99.90
27224;DHT22;14965;50.660;13.226;2023-06-22T04:13:42;17.10;99.90
27224;DHT22;14965;50.660;13.226;2023-06-22T04:16:09;17.20;99.90
27224;DHT22;14965;50.660;13.226;2023-06-22T04:18:35;17.40;99.90
27224;DHT22;14965;50.660;13.226;2023-06-22T04:21:01;17.40;99.90
27224;DHT22;14965;50.660;13.226;2023-06-22T04:23:28;17.50;99.90
27224;DHT22;14965;50.660;13.226;2023-06-22T04:25:53;17.70;99.90
27224;DHT22;14965;50.660;13.226;2023-06-22T04:28:19;18.10;99.90
27224;DHT22;14965;50.660;13.226;2023-06-22T04:30:45;18.80;99.90
27224;DHT22;14965;50.660;13.226;2023-06-22T04:33:13;19.70;99.90
27224;DHT22;14965;50.660;13.226;2023-06-22T04:35:39;20.40;99.90
27224;DHT22;14965;50.660;13.226;2023-06-22T04:38:05;21.00;99.90
27224;DHT22;14965;50.660;13.226;2023-06-22T04:40:30;21.60;99.90
27224;DHT22;14965;50.660;13.226;2023-06-22T04:42:56;22.30;99.90
27224;DHT22;14965;50.660;13.226;2023-06-22T04:45:22;22.70;99.90
27224;DHT22;14965;50.660;13.226;2023-06-22T04:47:48;22.50;99.90
27224;DHT22;14965;50.660;13.226;2023-06-22T04:50:15;22.10;99.90
27224;DHT22;14965;50.660;13.226;2023-06-22T04:52:41;21.60;99.90
27224;DHT22;14965;50.660;13.226;2023-06-22T04:55:08;21.20;99.90
27224;DHT22;14965;50.660;13.226;2023-06-22T04:57:34;20.90;99.90
27224;DHT22;14965;50.660;13.226;2023-06-22T05:00:00;20.60;99.90
27224;DHT22;14965;50.660;13.226;2023-06-22T05:02:26;20.40;99.90
27224;DHT22;14965;50.660;13.226;2023-06-22T05:04:52;20.70;99.90
27224;DHT22;14965;50.660;13.226;2023-06-22T05:07:19;21.10;99.90
27224;DHT22;14965;50.660;13.226;2023-06-22T05:09:45;22.10;99.90
27224;DHT22;14965;50.660;13.226;2023-06-22T05:12:11;23.10;99.90
27224;DHT22;14965;50.660;13.226;2023-06-22T05:14:37;24.00;99.90
27224;DHT22;14965;50.660;13.226;2023-06-22T05:17:03;24.60;99.90
27224;DHT22;14965;50.660;13.226;2023-06-22T05:19:29;25.20;99.90
27224;DHT22;14965;50.660;13.226;2023-06-22T05:21:55;25.60;99.90
27224;DHT22;14965;50.660;13.226;2023-06-22T05:24:22;26.00;99.90
27224;DHT22;14965;50.660;13.226;2023-06-22T05:26:48;26.40;99.90
27224;DHT22;14965;50.660;13.226;2023-06-22T05:29:14;26.20;99.90
27224;DHT22;14965;50.660;13.226;2023-06-22T05:31:39;26.20;99.90
27224;DHT22;14965;50.660;13.226;2023-06-22T05:34:05;26.70;99.90
27224;DHT22;14965;50.660;13.226;2023-06-22T05:36:31;27.20;99.90
27224;DHT22;14965;50.660;13.226;2023-06-22T05:38:57;27.60;99.90
27224;DHT22;14965;50.660;13.226;2023-06-22T05:41:24;28.10;99.90
27224;DHT22;14965;50.660;13.226;2023-06-22T05:43:50;28.60;99.90
27224;DHT22;14965;50.660;13.226;2023-06-22T05:46:16;28.90;99.90
27224;DHT22;14965;50.660;13.226;2023-06-22T05:48:43;29.20;99.90
27224;DHT22;14965;50.660;13.226;2023-06-22T05:51:09;29.40;99.90
27224;DHT22;14965;50.660;13.226;2023-06-22T05:53:34;29.60;99.90
27224;DHT22;14965;50.660;13.226;2023-06-22T05:56:00;29.60;99.90
27224;DHT22;14965;50.660;13.226;2023-06-22T05:58:27;29.50;99.90
27224;DHT22;14965;50.660;13.226;2023-06-22T06:00:53;29.30;99.90
27224;DHT22;14965;50.660;13.226;2023-06-22T06:03:19;29.20;99.90
27224;DHT22;14965;50.660;13.226;2023-06-22T06:05:45;29.20;99.90
27224;DHT22;14965;50.660;13.226;2023-06-22T06:08:11;29.30;99.90
27224;DHT22;14965;50.660;13.226;2023-06-22T06:10:37;29.50;99.90
27224;DHT22;14965;50.660;13.226;2023-06-22T06:13:03;29.20;99.90
27224;DHT22;14965;50.660;13.226;2023-06-22T06:15:31;29.00;99.90
27224;DHT22;14965;50.660;13.226;2023-06-22T06:17:57;29.10;99.90
27224;DHT22;14965;50.660;13.226;2023-06-22T06:20:25;28.70;99.90
27224;DHT22;14965;50.660;13.226;2023-06-22T06:22:51;28.00;99.90
27224;DHT22;14965;50.660;13.226;2023-06-22T06:25:17;27.00;99.90
27224;DHT22;14965;50.660;13.226;2023-06-22T06:27:44;26.00;99.90
27224;DHT22;14965;50.660;13.226;2023-06-22T06:30:11;25.30;99.90
27224;DHT22;14965;50.660;13.226;2023-06-22T06:32:40;25.30;99.90
27224;DHT22;14965;50.660;13.226;2023-06-22T06:35:08;25.70;99.90
27224;DHT22;14965;50.660;13.226;2023-06-22T06:37:37;26.10;99.90
27224;DHT22;14965;50.660;13.226;2023-06-22T06:40:04;26.20;99.90
27224;DHT22;14965;50.660;13.226;2023-06-22T06:42:31;26.40;99.90
27224;DHT22;14965;50.660;13.226;2023-06-22T06:44:57;26.00;99.90
27224;DHT22;14965;50.660;13.226;2023-06-22T06:47:23;25.70;99.90
27224;DHT22;14965;50.660;13.226;2023-06-22T06:49:50;25.60;99.90
27224;DHT22;14965;50.660;13.226;2023-06-22T06:52:16;25.90;99.90
27224;DHT22;14965;50.660;13.226;2023-06-22T06:54:42;26.50;99.90
27224;DHT22;14965;50.660;13.226;2023-06-22T06:57:08;27.10;99.90
27224;DHT22;14965;50.660;13.226;2023-06-22T06:59:34;27.50;99.90
27224;DHT22;14965;50.660;13.226;2023-06-22T07:01:59;27.50;99.90
27224;DHT22;14965;50.660;13.226;2023-06-22T07:04:25;27.40;99.90
27224;DHT22;14965;50.660;13.226;2023-06-22T07:06:52;27.60;99.90
27224;DHT22;14965;50.660;13.226;2023-06-22T07:09:18;27.70;99.90
27224;DHT22;14965;50.660;13.226;2023-06-22T07:11:44;28.00;99.40
27224;DHT22;14965;50.660;13.226;2023-06-22T07:14:10;27.90;98.60
27224;DHT22;14965;50.660;13.226;2023-06-22T07:16:35;27.90;99.40
27224;DHT22;14965;50.660;13.226;2023-06-22T07:19:01;27.90;99.00
27224;DHT22;14965;50.660;13.226;2023-06-22T07:21:27;27.70;99.70
27224;DHT22;14965;50.660;13.226;2023-06-22T07:23:55;27.60;99.80
27224;DHT22;14965;50.660;13.226;2023-06-22T07:26:20;27.70;99.90
27224;DHT22;14965;50.660;13.226;2023-06-22T07:28:46;27.80;99.90
27224;DHT22;14965;50.660;13.226;2023-06-22T07:31:12;27.80;99.00
27224;DHT22;14965;50.660;13.226;2023-06-22T07:33:38;27.70;98.70
27224;DHT22;14965;50.660;13.226;2023-06-22T07:36:04;27.60;99.50
27224;DHT22;14965;50.660;13.226;2023-06-22T07:38:30;27.40;99.70
27224;DHT22;14965;50.660;13.226;2023-06-22T07:40:57;27.40;99.80
27224;DHT22;14965;50.660;13.226;2023-06-22T07:43:22;27.40;99.50
27224;DHT22;14965;50.660;13.226;2023-06-22T07:45:48;27.30;99.90
27224;DHT22;14965;50.660;13.226;2023-06-22T07:48:15;27.30;99.90
27224;DHT22;14965;50.660;13.226;2023-06-22T07:50:40;27.00;99.70
27224;DHT22;14965;50.660;13.226;2023-06-22T07:53:06;26.70;99.90
27224;DHT22;14965;50.660;13.226;2023-06-22T07:55:32;26.70;99.90
27224;DHT22;14965;50.660;13.226;2023-06-22T07:58:00;26.90;99.70
27224;DHT22;14965;50.660;13.226;2023-06-22T08:00:25;26.80;99.90
27224;DHT22;14965;50.660;13.226;2023-06-22T08:02:51;26.80;99.90
27224;DHT22;14965;50.660;13.226;2023-06-22T08:05:17;26.80;99.90
27224;DHT22;14965;50.660;13.226;2023-06-22T08:07:43;26.80;99.90
27224;DHT22;14965;50.660;13.226;2023-06-22T08:10:11;26.80;99.90
27224;DHT22;14965;50.660;13.226;2023-06-22T08:12:38;27.00;99.90
27224;DHT22;14965;50.660;13.226;2023-06-22T08:15:07;27.20;99.90
27224;DHT22;14965;50.660;13.226;2023-06-22T08:17:33;27.40;99.90
27224;DHT22;14965;50.660;13.226;2023-06-22T08:19:59;27.20;99.90
27224;DHT22;14965;50.660;13.226;2023-06-22T08:22:25;27.20;99.90
27224;DHT22;14965;50.660;13.226;2023-06-22T08:24:51;27.10;99.90
27224;DHT22;14965;50.660;13.226;2023-06-22T08:27:17;26.80;99.90
27224;DHT22;14965;50.660;13.226;2023-06-22T08:29:42;26.60;99.90
27224;DHT22;14965;50.660;13.226;2023-06-22T08:32:10;26.60;99.90
27224;DHT22;14965;50.660;13.226;2023-06-22T08:34:36;26.80;99.90
27224;DHT22;14965;50.660;13.226;2023-06-22T08:37:02;26.90;99.90
27224;DHT22;14965;50.660;13.226;2023-06-22T08:39:28;27.10;99.90
27224;DHT22;14965;50.660;13.226;2023-06-22T08:41:53;27.20;99.90
27224;DHT22;14965;50.660;13.226;2023-06-22T08:44:19;27.40;99.90
27224;DHT22;14965;50.660;13.226;2023-06-22T08:46:45;27.50;99.90
27224;DHT22;14965;50.660;13.226;2023-06-22T08:49:13;27.60;99.90
27224;DHT22;14965;50.660;13.226;2023-06-22T08:51:38;27.70;99.90
27224;DHT22;14965;50.660;13.226;2023-06-22T08:54:04;27.80;99.90
27224;DHT22;14965;50.660;13.226;2023-06-22T08:56:30;27.80;99.90
27224;DHT22;14965;50.660;13.226;2023-06-22T08:58:56;27.70;99.90
27224;DHT22;14965;50.660;13.226;2023-06-22T09:01:22;27.70;99.90
27224;DHT22;14965;50.660;13.226;2023-06-22T09:03:48;27.90;99.90
27224;DHT22;14965;50.660;13.226;2023-06-22T09:06:15;28.00;99.90
27224;DHT22;14965;50.660;13.226;2023-06-22T09:08:41;27.80;99.90
27224;DHT22;14965;50.660;13.226;2023-06-22T09:11:06;27.40;99.90
27224;DHT22;14965;50.660;13.226;2023-06-22T09:13:32;27.30;99.90
27224;DHT22;14965;50.660;13.226;2023-06-22T09:15:58;27.60;99.90
27224;DHT22;14965;50.660;13.226;2023-06-22T09:18:24;27.80;99.90
27224;DHT22;14965;50.660;13.226;2023-06-22T09:20:50;27.80;99.90
27224;DHT22;14965;50.660;13.226;2023-06-22T09:23:17;27.90;99.90
27224;DHT22;14965;50.660;13.226;2023-06-22T09:25:43;27.70;99.90
27224;DHT22;14965;50.660;13.226;2023-06-22T09:28:09;27.80;99.90
27224;DHT22;14965;50.660;13.226;2023-06-22T09:30:35;27.90;99.90
27224;DHT22;14965;50.660;13.226;2023-06-22T09:33:00;28.10;99.90
27224;DHT22;14965;50.660;13.226;2023-06-22T09:35:26;28.20;99.90
27224;DHT22;14965;50.660;13.226;2023-06-22T09:37:52;28.10;99.90
27224;DHT22;14965;50.660;13.226;2023-06-22T09:40:19;28.10;99.90
27224;DHT22;14965;50.660;13.226;2023-06-22T09:42:45;28.30;99.90
27224;DHT22;14965;50.660;13.226;2023-06-22T09:45:11;28.50;99.90
27224;DHT22;14965;50.660;13.226;2023-06-22T09:47:37;28.70;99.90
27224;DHT22;14965;50.660;13.226;2023-06-22T09:50:03;28.40;98.90
27224;DHT22;14965;50.660;13.226;2023-06-22T09:52:30;28.10;99.90
27224;DHT22;14965;50.660;13.226;2023-06-22T09:54:56;28.10;99.90
27224;DHT22;14965;50.660;13.226;2023-06-22T09:57:23;28.10;99.30
27224;DHT22;14965;50.660;13.226;2023-06-22T09:59:49;28.20;99.90
27224;DHT22;14965;50.660;13.226;2023-06-22T10:02:14;28.50;99.90
27224;DHT22;14965;50.660;13.226;2023-06-22T10:04:40;28.60;99.80
27224;DHT22;14965;50.660;13.226;2023-06-22T10:07:06;28.80;99.90
27224;DHT22;14965;50.660;13.226;2023-06-22T10:09:32;28.80;99.50
27224;DHT22;14965;50.660;13.226;2023-06-22T10:11:58;29.00;99.40
27224;DHT22;14965;50.660;13.226;2023-06-22T10:14:25;28.90;98.10
27224;DHT22;14965;50.660;13.226;2023-06-22T10:16:52;28.80;98.50
27224;DHT22;14965;50.660;13.226;2023-06-22T10:19:18;28.80;98.80
27224;DHT22;14965;50.660;13.226;2023-06-22T10:21:44;28.90;98.80
27224;DHT22;14965;50.660;13.226;2023-06-22T10:24:09;28.80;99.30
27224;DHT22;14965;50.660;13.226;2023-06-22T10:26:36;28.90;99.90
27224;DHT22;14965;50.660;13.226;2023-06-22T10:29:02;29.00;98.90
27224;DHT22;14965;50.660;13.226;2023-06-22T10:31:30;28.90;96.80
27224;DHT22;14965;50.660;13.226;2023-06-22T10:33:56;28.70;98.30
27224;DHT22;14965;50.660;13.226;2023-06-22T10:36:22;28.70;98.70
27224;DHT22;14965;50.660;13.226;2023-06-22T10:38:48;28.80;97.60
27224;DHT22;14965;50.660;13.226;2023-06-22T10:41:14;28.40;98.50
27224;DHT22;14965;50.660;13.226;2023-06-22T10:43:40;28.30;99.30
27224;DHT22;14965;50.660;13.226;2023-06-22T10:46:06;28.40;99.20
27224;DHT22;14965;50.660;13.226;2023-06-22T10:48:34;28.30;98.10
27224;DHT22;14965;50.660;13.226;2023-06-22T10:51:00;28.20;99.60
27224;DHT22;14965;50.660;13.226;2023-06-22T10:53:25;27.90;99.20
27224;DHT22;14965;50.660;13.226;2023-06-22T10:55:51;27.80;99.90
27224;DHT22;14965;50.660;13.226;2023-06-22T10:58:18;27.80;99.90
27224;DHT22;14965;50.660;13.226;2023-06-22T11:00:44;28.00;99.90
27224;DHT22;14965;50.660;13.226;2023-06-22T11:03:10;28.10;99.60
27224;DHT22;14965;50.660;13.226;2023-06-22T11:05:37;28.10;99.30
27224;DHT22;14965;50.660;13.226;2023-06-22T11:08:04;28.00;99.00
27224;DHT22;14965;50.660;13.226;2023-06-22T11:10:29;28.10;99.90
27224;DHT22;14965;50.660;13.226;2023-06-22T11:12:55;28.40;99.90
27224;DHT22;14965;50.660;13.226;2023-06-22T11:15:21;28.40;99.30
27224;DHT22;14965;50.660;13.226;2023-06-22T11:17:47;28.40;99.90
27224;DHT22;14965;50.660;13.226;2023-06-22T11:20:13;28.50;99.90
27224;DHT22;14965;50.660;13.226;2023-06-22T11:22:40;28.40;98.70
27224;DHT22;14965;50.660;13.226;2023-06-22T11:25:07;28.30;99.30
27224;DHT22;14965;50.660;13.226;2023-06-22T11:27:33;28.40;99.00
27224;DHT22;14965;50.660;13.226;2023-06-22T11:30:00;28.60;99.80
27224;DHT22;14965;50.660;13.226;2023-06-22T11:32:26;28.70;98.90
27224;DHT22;14965;50.660;13.226;2023-06-22T11:34:52;28.70;99.70
27224;DHT22;14965;50.660;13.226;2023-06-22T11:37:18;28.80;99.20
27224;DHT22;14965;50.660;13.226;2023-06-22T11:39:45;28.70;99.90
27224;DHT22;14965;50.660;13.226;2023-06-22T11:42:11;28.70;99.30
27224;DHT22;14965;50.660;13.226;2023-06-22T11:44:36;28.80;99.50
27224;DHT22;14965;50.660;13.226;2023-06-22T11:47:03;28.90;99.20
27224;DHT22;14965;50.660;13.226;2023-06-22T11:49:29;28.80;98.20
27224;DHT22;14965;50.660;13.226;2023-06-22T11:51:56;28.70;99.10
27224;DHT22;14965;50.660;13.226;2023-06-22T11:54:22;28.70;98.00
27224;DHT22;14965;50.660;13.226;2023-06-22T11:56:49;28.50;99.00
27224;DHT22;14965;50.660;13.226;2023-06-22T11:59:15;28.50;99.20
27224;DHT22;14965;50.660;13.226;2023-06-22T12:01:41;28.70;99.50
27224;DHT22;14965;50.660;13.226;2023-06-22T12:04:07;28.80;97.80
27224;DHT22;14965;50.660;13.226;2023-06-22T12:06:33;28.60;98.80
27224;DHT22;14965;50.660;13.226;2023-06-22T12:09:01;28.40;98.70
27224;DHT22;14965;50.660;13.226;2023-06-22T12:11:27;28.50;99.70
27224;DHT22;14965;50.660;13.226;2023-06-22T12:13:54;28.40;99.70
27224;DHT22;14965;50.660;13.226;2023-06-22T12:16:19;28.40;98.20
27224;DHT22;14965;50.660;13.226;2023-06-22T12:18:46;28.40;99.10
27224;DHT22;14965;50.660;13.226;2023-06-22T12:21:12;28.40;99.20
27224;DHT22;14965;50.660;13.226;2023-06-22T12:23:37;28.50;99.00
27224;DHT22;14965;50.660;13.226;2023-06-22T12:26:03;28.70;99.30
27224;DHT22;14965;50.660;13.226;2023-06-22T12:28:29;28.70;98.00
27224;DHT22;14965;50.660;13.226;2023-06-22T12:30:56;28.40;98.60
27224;DHT22;14965;50.660;13.226;2023-06-22T12:33:22;28.20;98.90
27224;DHT22;14965;50.660;13.226;2023-06-22T12:35:48;28.20;99.90
27224;DHT22;14965;50.660;13.226;2023-06-22T12:38:14;28.30;99.00
27224;DHT22;14965;50.660;13.226;2023-06-22T12:40:40;28.20;99.10
27224;DHT22;14965;50.660;13.226;2023-06-22T12:43:05;28.20;98.40
27224;DHT22;14965;50.660;13.226;2023-06-22T12:45:31;28.30;99.00
27224;DHT22;14965;50.660;13.226;2023-06-22T12:47:59;28.30;98.70
27224;DHT22;14965;50.660;13.226;2023-06-22T12:50:24;28.30;98.40
27224;DHT22;14965;50.660;13.226;2023-06-22T12:52:50;28.40;99.40
27224;DHT22;14965;50.660;13.226;2023-06-22T12:55:16;28.60;99.10
27224;DHT22;14965;50.660;13.226;2023-06-22T12:57:42;28.80;98.90
27224;DHT22;14965;50.660;13.226;2023-06-22T13:00:09;28.90;98.70
27224;DHT22;14965;50.660;13.226;2023-06-22T13:02:35;28.80;98.50
27224;DHT22;14965;50.660;13.226;2023-06-22T13:05:03;28.70;98.50
27224;DHT22;14965;50.660;13.226;2023-06-22T13:07:29;28.60;98.10
27224;DHT22;14965;50.660;13.226;2023-06-22T13:09:55;28.50;98.90
27224;DHT22;14965;50.660;13.226;2023-06-22T13:12:21;28.50;98.10
27224;DHT22;14965;50.660;13.226;2023-06-22T13:14:47;28.50;98.60
27224;DHT22;14965;50.660;13.226;2023-06-22T13:17:13;28.50;98.70
27224;DHT22;14965;50.660;13.226;2023-06-22T13:19:39;28.40;98.80
27224;DHT22;14965;50.660;13.226;2023-06-22T13:22:26;28.40;98.20
27224;DHT22;14965;50.660;13.226;2023-06-22T13:24:54;28.50;98.60
27224;DHT22;14965;50.660;13.226;2023-06-22T13:27:20;28.50;99.00
27224;DHT22;14965;50.660;13.226;2023-06-22T13:29:45;28.60;98.50
27224;DHT22;14965;50.660;13.226;2023-06-22T13:32:11;28.70;98.60
27224;DHT22;14965;50.660;13.226;2023-06-22T13:34:37;28.80;98.00
27224;DHT22;14965;50.660;13.226;2023-06-22T13:37:03;28.80;97.60
27224;DHT22;14965;50.660;13.226;2023-06-22T13:39:31;28.70;98.70
27224;DHT22;14965;50.660;13.226;2023-06-22T13:41:58;28.60;98.90
27224;DHT22;14965;50.660;13.226;2023-06-22T13:44:24;28.40;98.90
27224;DHT22;14965;50.660;13.226;2023-06-22T13:46:49;28.40;98.50
27224;DHT22;14965;50.660;13.226;2023-06-22T13:49:15;28.40;98.40
27224;DHT22;14965;50.660;13.226;2023-06-22T13:51:41;28.30;97.50
27224;DHT22;14965;50.660;13.226;2023-06-22T13:54:07;28.20;98.20
27224;DHT22;14965;50.660;13.226;2023-06-22T13:56:34;28.20;97.90
27224;DHT22;14965;50.660;13.226;2023-06-22T13:59:00;28.10;97.80
27224;DHT22;14965;50.660;13.226;2023-06-22T14:01:26;28.20;98.70
27224;DHT22;14965;50.660;13.226;2023-06-22T14:03:52;28.20;98.50
27224;DHT22;14965;50.660;13.226;2023-06-22T14:06:17;28.20;97.50
27224;DHT22;14965;50.660;13.226;2023-06-22T14:08:43;28.10;97.60
27224;DHT22;14965;50.660;13.226;2023-06-22T14:11:09;28.10;98.30
27224;DHT22;14965;50.660;13.226;2023-06-22T14:13:36;28.00;98.10
27224;DHT22;14965;50.660;13.226;2023-06-22T14:16:02;28.10;99.30
27224;DHT22;14965;50.660;13.226;2023-06-22T14:18:28;28.10;97.90
27224;DHT22;14965;50.660;13.226;2023-06-22T14:20:54;28.10;98.30
27224;DHT22;14965;50.660;13.226;2023-06-22T14:23:20;28.00;98.40
27224;DHT22;14965;50.660;13.226;2023-06-22T14:25:46;27.90;98.20
27224;DHT22;14965;50.660;13.226;2023-06-22T14:28:12;27.90;98.10
27224;DHT22;14965;50.660;13.226;2023-06-22T14:30:39;27.80;98.80
27224;DHT22;14965;50.660;13.226;2023-06-22T14:33:05;27.70;98.80
27224;DHT22;14965;50.660;13.226;2023-06-22T14:35:31;27.60;98.60
27224;DHT22;14965;50.660;13.226;2023-06-22T14:37:56;27.60;99.30
27224;DHT22;14965;50.660;13.226;2023-06-22T14:40:22;27.80;99.50
27224;DHT22;14965;50.660;13.226;2023-06-22T14:42:48;27.90;99.40
27224;DHT22;14965;50.660;13.226;2023-06-22T14:45:14;28.00;99.50
27224;DHT22;14965;50.660;13.226;2023-06-22T14:47:41;28.20;99.10
27224;DHT22;14965;50.660;13.226;2023-06-22T14:50:07;28.30;99.20
27224;DHT22;14965;50.660;13.226;2023-06-22T14:52:33;28.30;99.50
27224;DHT22;14965;50.660;13.226;2023-06-22T14:54:59;28.30;98.70
27224;DHT22;14965;50.660;13.226;2023-06-22T14:57:25;28.30;99.20
27224;DHT22;14965;50.660;13.226;2023-06-22T14:59:51;28.30;99.20
27224;DHT22;14965;50.660;13.226;2023-06-22T15:02:17;28.30;98.80
27224;DHT22;14965;50.660;13.226;2023-06-22T15:04:44;28.10;98.10
27224;DHT22;14965;50.660;13.226;2023-06-22T15:07:10;28.00;99.40
27224;DHT22;14965;50.660;13.226;2023-06-22T15:09:36;27.90;99.00